Impacts TAF Board
For situational awareness. Not to be used for flight planning purposes.
IDs:

KYKM - Yakima Air Term/McAl, WA, US

Issued at 0655 UTC 22 Oct 2021
Updated at 0702 UTC 22 Oct 2021
Potential Impact None Slight Moderate High
Time0653Z 22/08Z 22/09Z 22/10Z 22/11Z 22/12Z 22/13Z 22/14Z 22/15Z 22/16Z 22/17Z 22/18Z 22/19Z 22/20Z>>
Type OBS PRVL
  [TEMP]  
PRVL
  [TEMP]  
PRVL
  [TEMP]  
PRVL PRVL PRVL PRVL PRVL PRVL PRVL PRVL PRVL PRVL
VIS 10 >6
  [4]  
>6
  [4]  
>6
  [4]  
>6 >6 >6 6 6 6 6 6 6 >6
CIG 65 70
  [25]  
70
  [25]  
70
  [25]  
70 50 50 40 40 40 40 40 40 80
Cover OVC BKN
  [OVC]  
BKN
  [OVC]  
BKN
  [OVC]  
BKN BKN BKN OVC OVC OVC OVC OVC OVC BKN
FltCat VFR VFR
  [MVFR]  
VFR
  [MVFR]  
VFR
  [MVFR]  
VFR VFR VFR VFR VFR VFR VFR VFR VFR VFR
WX -RA --
  [RA BR]  
--
  [RA BR]  
--
  [RA BR]  
-- VCSH VCSH -SHRA BR -SHRA BR -SHRA BR -SHRA BR -SHRA BR -SHRA BR VCSH
WDir 290 240
[240]
240
[240]
240
[240]
240 VRB VRB VRB VRB VRB VRB VRB VRB 240
WSpd 5 9
  [9]  
9
  [9]  
9
  [9]  
9 6 6 5 5 5 5 5 5 6
WGst -- --
  [--]  
--
  [--]  
--
  [--]  
-- -- -- -- -- -- -- -- -- --
Raw TAF
KYKM 220655Z 2207/2306 24009KT P6SM BKN070
  TEMPO 2207/2211 4SM RA BR OVC025
  FM221200 VRB06KT P6SM VCSH BKN050
  FM221400 VRB05KT 6SM -SHRA BR SCT025 OVC040
  FM222000 24006KT P6SM VCSH BKN080


Raw METAR
KYKM 220653Z AUTO 29005KT 10SM -RA OVC065 12/12 A2975 RMK AO2 RAB06 SLP072 P0001 T01220117
KYKM 220553Z AUTO 26008KT 10SM OVC075 14/10 A2975 RMK AO2 RAB15E28 SLP074 P0000 60000 T01440100 10167 20128 55014
KYKM 220453Z 23009KT 10SM OVC090 14/09 A2974 RMK AO2 SLP072 T01390094

METAR Board
Radar Display
Forecast Discussion
For situational awareness. Not to be used for flight planning purposes.